createdAt,value
2023-04-29T00:01:00.773Z,6.20
2023-04-29T00:03:30.628Z,7.30
2023-04-29T00:05:59.273Z,5.50
2023-04-29T00:08:28.642Z,6.30
2023-04-29T00:10:56.741Z,5.40
2023-04-29T00:13:25.053Z,5.90
2023-04-29T00:15:53.448Z,5.80
2023-04-29T00:18:21.458Z,6.00
2023-04-29T00:20:49.389Z,6.40
2023-04-29T00:23:17.426Z,7.00
2023-04-29T00:25:45.505Z,6.60
2023-04-29T00:28:13.754Z,7.00
2023-04-29T00:30:41.784Z,6.60
2023-04-29T00:33:09.970Z,6.00
2023-04-29T00:35:37.955Z,6.30
2023-04-29T00:38:06.065Z,6.60
2023-04-29T00:40:34.311Z,6.20
2023-04-29T00:43:02.390Z,7.10
2023-04-29T00:45:30.369Z,6.80
2023-04-29T00:48:01.647Z,7.50
2023-04-29T00:50:32.574Z,8.10
2023-04-29T00:53:04.075Z,6.70
2023-04-29T00:55:33.026Z,7.40
2023-04-29T00:58:02.895Z,5.80
2023-04-29T01:00:31.398Z,7.40
2023-04-29T01:02:59.955Z,7.00
2023-04-29T01:05:28.256Z,6.10
2023-04-29T01:07:56.516Z,6.00
2023-04-29T01:10:29.213Z,5.80
2023-04-29T01:12:59.957Z,5.90
2023-04-29T01:15:33.024Z,5.90
2023-04-29T01:18:05.884Z,5.50
2023-04-29T01:20:35.018Z,5.60
2023-04-29T01:23:03.176Z,5.90
2023-04-29T01:25:31.834Z,5.80
2023-04-29T01:28:21.887Z,5.50
2023-04-29T01:31:09.839Z,5.20
2023-04-29T01:33:40.494Z,4.60
2023-04-29T01:36:09.714Z,5.80
2023-04-29T01:38:42.267Z,5.30
2023-04-29T01:41:10.507Z,5.10
2023-04-29T01:43:39.239Z,5.00
2023-04-29T01:46:18.733Z,4.80
2023-04-29T01:48:46.974Z,4.70
2023-04-29T01:51:15.169Z,5.30
2023-04-29T01:53:43.686Z,5.70
2023-04-29T01:56:11.729Z,5.00
2023-04-29T01:59:05.900Z,4.50
2023-04-29T02:01:54.723Z,4.30
2023-04-29T02:04:22.696Z,4.90
2023-04-29T02:06:51.219Z,4.10
2023-04-29T02:09:19.874Z,4.80
2023-04-29T02:11:52.319Z,5.40
2023-04-29T02:14:20.511Z,4.30
2023-04-29T02:16:48.502Z,4.50
2023-04-29T02:19:16.964Z,5.00
2023-04-29T02:21:45.916Z,5.20
2023-04-29T02:24:13.925Z,5.10
2023-04-29T02:26:42.121Z,4.50
2023-04-29T02:29:10.251Z,4.60
2023-04-29T02:31:38.459Z,5.30
2023-04-29T02:34:06.764Z,5.20
2023-04-29T02:36:35.701Z,4.70
2023-04-29T02:39:03.865Z,4.10
2023-04-29T02:41:31.813Z,4.00
2023-04-29T02:44:00.510Z,5.10
2023-04-29T02:46:28.633Z,4.70
2023-04-29T02:48:57.287Z,4.40
2023-04-29T02:51:25.296Z,4.40
2023-04-29T02:53:53.426Z,5.30
2023-04-29T02:56:21.723Z,5.80
2023-04-29T02:58:49.782Z,5.70
2023-04-29T03:01:17.832Z,5.50
2023-04-29T03:03:46.777Z,4.60
2023-04-29T03:06:16.134Z,5.00
2023-04-29T03:08:44.129Z,5.10
2023-04-29T03:11:12.279Z,5.20
2023-04-29T03:13:40.403Z,5.40
2023-04-29T03:16:08.767Z,4.70
2023-04-29T03:18:37.712Z,4.60
2023-04-29T03:21:06.238Z,5.40
2023-04-29T03:23:34.259Z,5.50
2023-04-29T03:26:03.376Z,5.10
2023-04-29T03:28:31.631Z,5.90
2023-04-29T03:31:00.552Z,4.90
2023-04-29T03:33:28.659Z,4.90
2023-04-29T03:35:56.697Z,5.50
2023-04-29T03:38:47.575Z,3.80
2023-04-29T03:41:16.874Z,4.50
2023-04-29T03:43:45.149Z,3.90
2023-04-29T03:46:13.251Z,4.80
2023-04-29T03:48:41.274Z,4.20
2023-04-29T03:51:09.667Z,4.00
2023-04-29T03:53:37.989Z,3.70
2023-04-29T03:56:06.292Z,4.80
2023-04-29T03:58:34.377Z,3.60
2023-04-29T04:01:03.223Z,3.70
2023-04-29T04:03:37.216Z,4.20
2023-04-29T04:06:05.561Z,4.00
2023-04-29T04:08:33.733Z,3.60
2023-04-29T04:11:15.326Z,3.70
2023-04-29T04:13:46.628Z,3.90
2023-04-29T04:16:14.953Z,3.80
2023-04-29T04:18:43.161Z,3.50
2023-04-29T04:21:11.869Z,3.70
2023-04-29T04:23:41.326Z,3.70
2023-04-29T04:26:10.635Z,3.70
2023-04-29T04:28:57.202Z,4.00
2023-04-29T04:31:36.895Z,3.60
2023-04-29T04:34:05.072Z,3.90
2023-04-29T04:36:33.705Z,3.80
2023-04-29T04:39:01.867Z,3.60
2023-04-29T04:41:32.227Z,4.20
2023-04-29T04:44:00.606Z,3.70
2023-04-29T04:46:39.925Z,4.50
2023-04-29T04:49:15.701Z,3.10
2023-04-29T04:51:50.138Z,4.10
2023-04-29T04:54:18.130Z,3.20
2023-04-29T04:56:46.355Z,3.20
2023-04-29T04:59:14.492Z,3.90
2023-04-29T05:01:42.619Z,3.10
2023-04-29T05:04:10.758Z,3.90
2023-04-29T05:06:38.766Z,3.50
2023-04-29T05:09:06.900Z,3.60
2023-04-29T05:11:35.688Z,4.40
2023-04-29T05:14:08.977Z,3.80
2023-04-29T05:16:37.179Z,4.90
2023-04-29T05:19:05.109Z,3.80
2023-04-29T05:21:36.409Z,3.70
2023-04-29T05:24:04.792Z,3.70
2023-04-29T05:26:32.832Z,3.80
2023-04-29T05:29:02.290Z,3.90
2023-04-29T05:31:33.600Z,4.40
2023-04-29T05:34:03.285Z,3.90
2023-04-29T05:36:32.039Z,3.40
2023-04-29T05:39:00.033Z,3.70
2023-04-29T05:41:28.299Z,4.80
2023-04-29T05:44:19.708Z,4.10
2023-04-29T05:46:48.911Z,9.00
2023-04-29T05:49:17.132Z,3.90
2023-04-29T05:51:45.156Z,3.20
2023-04-29T05:54:13.180Z,4.10
2023-04-29T05:56:41.491Z,8.00
2023-04-29T05:59:10.567Z,3.40
2023-04-29T06:01:39.198Z,3.60
2023-04-29T06:04:08.395Z,3.80
2023-04-29T06:06:57.517Z,3.60
2023-04-29T06:09:45.863Z,3.90
2023-04-29T06:12:14.114Z,3.80
2023-04-29T06:14:44.374Z,3.40
2023-04-29T06:17:13.073Z,3.80
2023-04-29T06:19:41.095Z,3.50
2023-04-29T06:22:10.747Z,3.60
2023-04-29T06:24:41.412Z,3.30
2023-04-29T06:27:10.869Z,3.20
2023-04-29T06:29:40.260Z,4.10
2023-04-29T06:32:08.929Z,4.10
2023-04-29T06:34:37.456Z,4.00
2023-04-29T06:37:41.288Z,3.90
2023-04-29T06:40:19.758Z,3.70
2023-04-29T06:43:05.977Z,3.90
2023-04-29T06:46:13.230Z,3.90
2023-04-29T06:48:49.632Z,3.60
2023-04-29T06:51:18.221Z,4.60
2023-04-29T06:53:47.031Z,4.50
2023-04-29T06:56:16.855Z,4.00
2023-04-29T06:58:45.343Z,2.80
2023-04-29T07:01:13.338Z,3.80
2023-04-29T07:03:41.520Z,3.60
2023-04-29T07:06:09.534Z,3.40
2023-04-29T07:08:37.580Z,4.00
2023-04-29T07:11:05.867Z,4.60
2023-04-29T07:13:33.931Z,4.50
2023-04-29T07:16:02.057Z,4.20
2023-04-29T07:18:30.168Z,4.00
2023-04-29T07:21:01.832Z,4.50
2023-04-29T07:23:30.136Z,3.90
2023-04-29T07:25:58.179Z,4.10
2023-04-29T07:28:26.558Z,3.90
2023-04-29T07:30:54.779Z,5.30
2023-04-29T07:33:23.146Z,5.80
2023-04-29T07:35:51.423Z,4.40
2023-04-29T07:38:19.447Z,3.80
2023-04-29T07:40:47.385Z,4.10
2023-04-29T07:43:15.808Z,3.30
2023-04-29T07:45:43.837Z,5.30
2023-04-29T07:48:12.028Z,4.70
2023-04-29T07:50:40.042Z,4.20
2023-04-29T07:53:08.858Z,4.30
2023-04-29T07:55:37.824Z,3.90
2023-04-29T07:58:06.381Z,14.80
2023-04-29T08:00:34.523Z,13.90
2023-04-29T08:03:02.627Z,6.70
2023-04-29T08:05:31.431Z,3.60
2023-04-29T08:07:59.884Z,4.20
2023-04-29T08:10:28.089Z,73.80
2023-04-29T08:12:56.302Z,22.80
2023-04-29T08:15:24.577Z,4.70
2023-04-29T08:17:54.583Z,3.40
2023-04-29T08:20:22.684Z,3.10
2023-04-29T08:22:50.885Z,5.60
2023-04-29T08:25:18.814Z,4.00
2023-04-29T08:27:46.877Z,4.20
2023-04-29T08:30:15.075Z,5.20
2023-04-29T08:32:43.045Z,3.70
2023-04-29T08:35:11.326Z,3.90
2023-04-29T08:37:39.343Z,3.90
2023-04-29T08:40:08.396Z,3.80
2023-04-29T08:42:37.089Z,3.60
2023-04-29T08:45:05.678Z,3.60
2023-04-29T08:47:34.274Z,3.70
2023-04-29T08:50:04.566Z,3.50
2023-04-29T08:52:32.961Z,3.40
2023-04-29T08:55:02.786Z,3.80
2023-04-29T08:57:31.655Z,3.20
2023-04-29T09:00:01.294Z,4.00
2023-04-29T09:02:29.504Z,4.10
2023-04-29T09:05:11.282Z,3.90
2023-04-29T09:07:39.961Z,3.60
2023-04-29T09:10:08.293Z,3.50
2023-04-29T09:12:36.482Z,3.60
2023-04-29T09:15:04.737Z,3.20
2023-04-29T09:17:38.893Z,4.00
2023-04-29T09:20:26.122Z,4.20
2023-04-29T09:22:55.174Z,4.30
2023-04-29T09:25:23.634Z,3.40
2023-04-29T09:27:52.033Z,3.50
2023-04-29T09:30:21.237Z,10.20
2023-04-29T09:33:08.989Z,8.30
2023-04-29T09:35:37.348Z,4.40
2023-04-29T09:38:09.523Z,3.40
2023-04-29T09:40:50.309Z,4.40
2023-04-29T09:43:26.426Z,4.00
2023-04-29T09:45:54.728Z,3.80
2023-04-29T09:48:23.170Z,3.30
2023-04-29T09:51:04.621Z,4.10
2023-04-29T09:53:33.586Z,3.30
2023-04-29T09:56:02.519Z,3.80
2023-04-29T09:58:34.140Z,3.10
2023-04-29T10:01:04.981Z,2.90
2023-04-29T10:03:37.436Z,6.60
2023-04-29T10:06:10.618Z,4.30
2023-04-29T10:08:41.500Z,4.10
2023-04-29T10:11:11.060Z,4.10
2023-04-29T10:13:42.886Z,3.50
2023-04-29T10:16:16.795Z,3.70
2023-04-29T10:18:48.989Z,3.00
2023-04-29T10:21:18.460Z,4.00
2023-04-29T10:23:46.456Z,3.60
2023-04-29T10:26:15.395Z,5.00
2023-04-29T10:28:45.449Z,4.00
2023-04-29T10:31:14.726Z,3.50
2023-04-29T10:33:46.102Z,3.40
2023-04-29T10:36:15.210Z,3.10
2023-04-29T10:38:45.711Z,3.20
2023-04-29T10:41:25.823Z,4.00
2023-04-29T10:43:54.207Z,3.70
2023-04-29T10:46:23.957Z,3.30
2023-04-29T10:48:56.513Z,3.20
2023-04-29T10:51:31.647Z,3.80
2023-04-29T10:54:08.742Z,3.50
2023-04-29T10:56:38.062Z,2.90
2023-04-29T10:59:06.573Z,3.20
2023-04-29T11:01:42.450Z,3.10
2023-04-29T11:04:11.584Z,2.50
2023-04-29T11:06:41.568Z,2.70
2023-04-29T11:09:12.770Z,3.80
2023-04-29T11:11:41.062Z,3.10
2023-04-29T11:14:11.247Z,3.60
2023-04-29T11:16:47.880Z,3.80
2023-04-29T11:19:17.088Z,3.60
2023-04-29T11:21:46.564Z,3.50
2023-04-29T11:24:18.052Z,3.70
2023-04-29T11:26:46.589Z,4.50
2023-04-29T11:29:15.060Z,5.80
2023-04-29T11:31:43.186Z,4.50
2023-04-29T11:34:11.760Z,3.40
2023-04-29T11:36:39.825Z,3.30
2023-04-29T11:39:08.257Z,3.30
2023-04-29T11:41:38.626Z,5.20
2023-04-29T11:44:07.637Z,3.50
2023-04-29T11:46:35.981Z,3.40
2023-04-29T11:49:04.149Z,6.40
2023-04-29T11:51:32.952Z,4.30
2023-04-29T11:54:01.050Z,3.30
2023-04-29T11:56:29.208Z,6.90
2023-04-29T11:58:58.145Z,4.10
2023-04-29T12:01:27.197Z,3.60
2023-04-29T12:04:00.531Z,11.40
2023-04-29T12:06:30.292Z,4.70
2023-04-29T12:09:01.887Z,3.50
2023-04-29T12:11:30.678Z,4.30
2023-04-29T12:14:01.168Z,5.50
2023-04-29T12:16:29.662Z,4.20
2023-04-29T12:18:58.881Z,3.50
2023-04-29T12:21:30.168Z,4.40
2023-04-29T12:24:02.922Z,6.50
2023-04-29T12:26:31.561Z,7.80
2023-04-29T12:28:59.691Z,3.80
2023-04-29T12:31:35.138Z,3.30
2023-04-29T12:34:04.867Z,4.20
2023-04-29T12:36:34.913Z,4.50
2023-04-29T12:39:07.428Z,3.80
2023-04-29T12:41:39.766Z,3.90
2023-04-29T12:44:08.338Z,4.80
2023-04-29T12:46:38.025Z,4.20
2023-04-29T12:49:06.499Z,3.90
2023-04-29T12:51:35.260Z,3.80
2023-04-29T12:54:04.188Z,4.10
2023-04-29T12:56:33.012Z,4.10
2023-04-29T12:59:07.782Z,3.10
2023-04-29T13:01:36.376Z,3.70
2023-04-29T13:04:06.255Z,3.80
2023-04-29T13:06:39.497Z,2.80
2023-04-29T13:09:07.863Z,3.80
2023-04-29T13:11:35.947Z,2.70
2023-04-29T13:14:04.529Z,3.70
2023-04-29T13:16:33.951Z,3.40
2023-04-29T13:19:13.061Z,3.60
2023-04-29T13:21:51.002Z,3.90
2023-04-29T13:24:20.407Z,3.90
2023-04-29T13:26:50.957Z,3.20
2023-04-29T13:29:21.037Z,3.50
2023-04-29T13:31:49.916Z,3.30
2023-04-29T13:34:18.049Z,3.60
2023-04-29T13:36:46.500Z,3.70
2023-04-29T13:39:15.107Z,4.20
2023-04-29T13:41:45.965Z,4.10
2023-04-29T13:44:27.322Z,3.30
2023-04-29T13:47:01.893Z,4.30
2023-04-29T13:49:58.680Z,3.80
2023-04-29T13:55:13.528Z,3.70
2023-04-29T14:00:20.123Z,6.60
2023-04-29T14:05:29.172Z,4.10
2023-04-29T14:07:57.476Z,3.80
2023-04-29T14:10:25.731Z,3.50
2023-04-29T14:12:54.477Z,3.40
2023-04-29T14:15:22.762Z,3.20
2023-04-29T14:17:51.210Z,3.30
2023-04-29T14:20:19.471Z,3.20
2023-04-29T14:22:47.588Z,3.40
2023-04-29T14:25:15.881Z,3.50
2023-04-29T14:27:44.448Z,4.70
2023-04-29T14:30:13.290Z,3.70
2023-04-29T14:32:42.048Z,3.50
2023-04-29T14:35:10.438Z,3.70
2023-04-29T14:37:38.721Z,3.60
2023-04-29T14:40:07.878Z,3.60
2023-04-29T14:42:36.488Z,3.70
2023-04-29T14:45:05.145Z,3.10
2023-04-29T14:47:33.330Z,3.10
2023-04-29T14:50:01.914Z,2.80
2023-04-29T14:52:30.103Z,2.80
2023-04-29T14:54:58.172Z,3.70
2023-04-29T14:57:26.521Z,3.20
2023-04-29T14:59:54.715Z,4.20
2023-04-29T15:02:22.892Z,3.00
2023-04-29T15:04:50.990Z,3.60
2023-04-29T15:07:20.054Z,3.20
2023-04-29T15:09:48.392Z,3.30
2023-04-29T15:12:18.245Z,3.10
2023-04-29T15:14:47.691Z,2.90
2023-04-29T15:17:15.749Z,3.40
2023-04-29T15:19:43.894Z,2.80
2023-04-29T15:22:13.016Z,3.50
2023-04-29T15:24:41.011Z,3.30
2023-04-29T15:27:09.255Z,3.10
2023-04-29T15:29:38.591Z,3.80
2023-04-29T15:32:07.138Z,4.70
2023-04-29T15:34:35.186Z,4.50
2023-04-29T15:37:03.624Z,4.20
2023-04-29T15:39:31.817Z,3.60
2023-04-29T15:41:59.879Z,3.90
2023-04-29T15:44:27.902Z,2.80
2023-04-29T15:46:55.939Z,2.20
2023-04-29T15:49:24.696Z,2.90
2023-04-29T15:51:52.958Z,3.00
2023-04-29T15:54:21.699Z,3.00
2023-04-29T15:56:50.366Z,3.20
2023-04-29T15:59:18.397Z,3.40
2023-04-29T16:01:46.599Z,2.50
2023-04-29T16:04:14.986Z,3.30
2023-04-29T16:06:43.204Z,3.70
2023-04-29T16:09:12.222Z,3.30
2023-04-29T16:11:41.782Z,3.10
2023-04-29T16:14:09.807Z,3.10
2023-04-29T16:16:37.929Z,3.10
2023-04-29T16:19:06.328Z,3.80
2023-04-29T16:21:34.818Z,2.70
2023-04-29T16:24:02.956Z,4.00
2023-04-29T16:26:31.890Z,6.20
2023-04-29T16:29:00.841Z,4.90
2023-04-29T16:31:34.821Z,3.50
2023-04-29T16:34:03.432Z,3.00
2023-04-29T16:36:31.769Z,3.10
2023-04-29T16:38:59.956Z,3.70
2023-04-29T16:41:29.221Z,5.60
2023-04-29T16:43:57.717Z,9.20
2023-04-29T16:46:26.475Z,8.20
2023-04-29T16:48:56.918Z,6.10
2023-04-29T16:51:29.268Z,6.50
2023-04-29T16:53:57.283Z,9.40
2023-04-29T16:56:25.875Z,11.80
2023-04-29T16:59:12.615Z,7.50
2023-04-29T17:01:40.866Z,8.50
2023-04-29T17:04:09.303Z,10.60
2023-04-29T17:06:39.900Z,10.80
2023-04-29T17:09:08.175Z,13.30
2023-04-29T17:11:39.050Z,14.70
2023-04-29T17:14:07.211Z,15.40
2023-04-29T17:16:35.467Z,12.90
2023-04-29T17:19:03.609Z,10.20
2023-04-29T17:21:33.705Z,11.10
2023-04-29T17:24:01.970Z,9.60
2023-04-29T17:26:31.835Z,8.90
2023-04-29T17:28:59.912Z,6.90
2023-04-29T17:31:44.769Z,6.90
2023-04-29T17:34:25.756Z,8.80
2023-04-29T17:36:53.856Z,11.30
2023-04-29T17:39:21.989Z,9.50
2023-04-29T17:41:50.094Z,9.50
2023-04-29T17:44:18.247Z,8.30
2023-04-29T17:46:46.583Z,7.90
2023-04-29T17:49:14.759Z,12.20
2023-04-29T17:51:42.901Z,10.50
2023-04-29T17:54:10.985Z,7.10
2023-04-29T17:56:39.545Z,7.30
2023-04-29T17:59:08.820Z,11.60
2023-04-29T18:01:37.585Z,12.70
2023-04-29T18:04:13.479Z,14.60
2023-04-29T18:06:47.929Z,19.50
2023-04-29T18:09:20.362Z,41.70
2023-04-29T18:11:49.254Z,208.80
2023-04-29T18:14:17.304Z,194.30
2023-04-29T18:16:45.465Z,179.60
2023-04-29T18:19:13.854Z,108.60
2023-04-29T18:21:41.998Z,84.40
2023-04-29T18:24:09.960Z,60.40
2023-04-29T18:26:48.315Z,35.90
2023-04-29T18:29:19.116Z,256.60
2023-04-29T18:31:47.538Z,322.40
2023-04-29T18:34:17.937Z,224.00
2023-04-29T18:36:46.118Z,180.30
2023-04-29T18:39:14.289Z,124.40
2023-04-29T18:41:42.367Z,57.40
2023-04-29T18:44:10.984Z,43.70
2023-04-29T18:46:39.420Z,36.70
2023-04-29T18:49:08.834Z,48.20
2023-04-29T18:54:21.928Z,28.30
2023-04-29T18:56:50.359Z,41.90
2023-04-29T18:59:26.964Z,66.30
2023-04-29T19:01:55.371Z,22.80
2023-04-29T19:04:23.737Z,16.20
2023-04-29T19:06:51.947Z,20.60
2023-04-29T19:09:20.119Z,24.00
2023-04-29T19:11:48.296Z,25.30
2023-04-29T19:14:16.518Z,22.20
2023-04-29T19:16:44.709Z,18.60
2023-04-29T19:19:12.671Z,17.30
2023-04-29T19:21:40.667Z,14.90
2023-04-29T19:24:08.856Z,15.60
2023-04-29T19:26:38.078Z,14.00
2023-04-29T19:29:08.168Z,12.50
2023-04-29T19:31:36.422Z,11.00
2023-04-29T19:34:04.580Z,10.20
2023-04-29T19:36:33.268Z,9.90
2023-04-29T19:39:03.920Z,9.00
2023-04-29T19:41:34.753Z,8.70
2023-04-29T19:44:03.187Z,8.30
2023-04-29T19:46:31.691Z,8.00
2023-04-29T19:48:59.913Z,7.70
2023-04-29T19:51:28.112Z,8.10
2023-04-29T19:53:56.729Z,7.80
2023-04-29T19:56:24.700Z,6.80
2023-04-29T19:58:52.805Z,7.60
2023-04-29T20:01:20.965Z,7.40
2023-04-29T20:03:49.890Z,7.60
2023-04-29T20:06:18.182Z,7.30
2023-04-29T20:08:46.312Z,7.60
2023-04-29T20:11:14.321Z,8.20
2023-04-29T20:13:42.369Z,7.60
2023-04-29T20:16:11.490Z,8.10
2023-04-29T20:18:40.885Z,8.50
2023-04-29T20:21:08.926Z,7.90
2023-04-29T20:23:36.921Z,7.90
2023-04-29T20:26:05.070Z,8.00
2023-04-29T20:28:33.112Z,7.80
2023-04-29T20:31:01.406Z,8.60
2023-04-29T20:33:29.503Z,9.80
2023-04-29T20:35:59.512Z,8.40
2023-04-29T20:38:27.465Z,8.70
2023-04-29T20:40:55.813Z,8.10
2023-04-29T20:43:24.017Z,7.90
2023-04-29T20:45:52.416Z,7.50
2023-04-29T20:48:20.410Z,6.70
2023-04-29T20:50:49.464Z,7.80
2023-04-29T20:53:17.412Z,6.80
2023-04-29T20:55:46.025Z,7.90
2023-04-29T20:58:20.992Z,9.60
2023-04-29T21:00:54.929Z,8.00
2023-04-29T21:03:23.278Z,8.70
2023-04-29T21:05:55.751Z,8.30
2023-04-29T21:08:23.778Z,8.80
2023-04-29T21:10:51.897Z,9.50
2023-04-29T21:13:23.403Z,10.50
2023-04-29T21:15:52.723Z,10.70
2023-04-29T21:18:20.793Z,11.40
2023-04-29T21:20:49.170Z,11.00
2023-04-29T21:23:17.268Z,10.40
2023-04-29T21:25:45.253Z,13.20
2023-04-29T21:28:14.354Z,12.60
2023-04-29T21:30:44.212Z,14.90
2023-04-29T21:33:14.839Z,13.40
2023-04-29T21:35:43.485Z,13.70
2023-04-29T21:38:14.620Z,15.30
2023-04-29T21:40:45.618Z,15.20
2023-04-29T21:43:15.798Z,15.70
2023-04-29T21:45:47.672Z,15.40
2023-04-29T21:48:26.484Z,15.70
2023-04-29T21:50:54.567Z,15.90
2023-04-29T21:53:24.786Z,16.30
2023-04-29T21:55:56.186Z,15.00
2023-04-29T21:58:26.726Z,14.80
2023-04-29T22:01:03.527Z,13.80
2023-04-29T22:03:32.024Z,12.60
2023-04-29T22:06:00.239Z,13.20
2023-04-29T22:08:28.266Z,13.30
2023-04-29T22:10:56.435Z,10.40
2023-04-29T22:13:24.638Z,11.80
2023-04-29T22:15:52.696Z,12.20
2023-04-29T22:18:20.808Z,11.70
2023-04-29T22:20:48.797Z,10.00
2023-04-29T22:23:16.755Z,10.60
2023-04-29T22:25:44.802Z,10.30
2023-04-29T22:28:12.929Z,10.70
2023-04-29T22:30:43.202Z,10.90
2023-04-29T22:33:12.439Z,10.50
2023-04-29T22:35:40.503Z,9.80
2023-04-29T22:38:09.299Z,10.20
2023-04-29T22:40:37.707Z,9.80
2023-04-29T22:43:05.888Z,9.40
2023-04-29T22:45:33.929Z,9.80
2023-04-29T22:48:02.137Z,10.30
2023-04-29T22:50:30.118Z,9.60
2023-04-29T22:52:58.058Z,10.10
2023-04-29T22:55:25.993Z,9.40
2023-04-29T22:57:54.081Z,9.80
2023-04-29T23:00:22.074Z,9.10
2023-04-29T23:02:50.242Z,9.30
2023-04-29T23:05:18.352Z,10.00
2023-04-29T23:07:46.387Z,9.50
2023-04-29T23:10:14.417Z,9.40
2023-04-29T23:12:42.436Z,9.30
2023-04-29T23:15:10.524Z,11.00
2023-04-29T23:17:39.903Z,8.50
2023-04-29T23:20:08.360Z,9.90
2023-04-29T23:22:36.517Z,9.10
2023-04-29T23:25:04.557Z,9.60
2023-04-29T23:27:32.584Z,8.10
2023-04-29T23:30:00.792Z,7.80
2023-04-29T23:32:28.924Z,8.90
2023-04-29T23:34:57.096Z,8.70
2023-04-29T23:37:25.472Z,9.70
2023-04-29T23:39:53.776Z,8.20
2023-04-29T23:42:22.239Z,7.30
2023-04-29T23:44:50.976Z,8.70
2023-04-29T23:47:18.946Z,7.30
2023-04-29T23:49:47.034Z,8.40
2023-04-29T23:52:15.082Z,8.00
2023-04-29T23:54:43.192Z,7.30
2023-04-29T23:57:11.697Z,8.30
2023-04-29T23:59:40.244Z,8.10
